createdAt,value
2022-12-23T00:00:59.463Z,13.00
2022-12-23T00:03:28.221Z,11.00
2022-12-23T00:05:56.299Z,10.50
2022-12-23T00:08:26.140Z,10.30
2022-12-23T00:10:54.987Z,10.00
2022-12-23T00:13:41.541Z,10.10
2022-12-23T00:16:12.463Z,12.10
2022-12-23T00:18:40.890Z,10.60
2022-12-23T00:21:11.767Z,10.60
2022-12-23T00:23:42.374Z,13.00
2022-12-23T00:26:28.791Z,11.80
2022-12-23T00:28:58.615Z,11.80
2022-12-23T00:31:26.667Z,8.90
2022-12-23T00:33:54.592Z,11.20
2022-12-23T00:36:24.887Z,10.00
2022-12-23T00:39:12.102Z,11.80
2022-12-23T00:41:58.988Z,10.90
2022-12-23T00:44:26.817Z,11.90
2022-12-23T00:46:54.592Z,11.60
2022-12-23T00:49:41.578Z,10.20
2022-12-23T00:52:15.463Z,12.80
2022-12-23T00:54:43.348Z,9.30
2022-12-23T00:57:11.594Z,11.70
2022-12-23T00:59:39.462Z,11.40
2022-12-23T01:02:26.159Z,11.70
2022-12-23T01:05:12.904Z,11.20
2022-12-23T01:07:42.500Z,10.90
2022-12-23T01:10:10.672Z,10.20
2022-12-23T01:12:38.508Z,9.00
2022-12-23T01:15:07.177Z,9.00
2022-12-23T01:17:34.936Z,9.80
2022-12-23T01:20:03.083Z,9.80
2022-12-23T01:22:30.872Z,9.50
2022-12-23T01:24:58.566Z,9.40
2022-12-23T01:27:26.390Z,9.00
2022-12-23T01:29:54.150Z,8.90
2022-12-23T01:32:21.882Z,9.70
2022-12-23T01:34:49.682Z,9.60
2022-12-23T01:37:17.898Z,8.60
2022-12-23T01:39:45.826Z,12.00
2022-12-23T01:42:37.555Z,10.70
2022-12-23T01:45:08.347Z,9.40
2022-12-23T01:47:55.842Z,12.20
2022-12-23T01:50:28.772Z,11.50
2022-12-23T01:53:18.157Z,8.70
2022-12-23T01:56:00.400Z,10.40
2022-12-23T02:01:17.703Z,9.40
2022-12-23T02:03:46.856Z,11.30
2022-12-23T02:06:39.347Z,12.30
2022-12-23T02:09:18.496Z,9.60
2022-12-23T02:12:28.230Z,13.90
2022-12-23T02:15:52.181Z,13.90
2022-12-23T02:18:41.571Z,14.20
2022-12-23T02:21:16.591Z,14.50
2022-12-23T02:24:03.110Z,12.00
2022-12-23T02:26:39.713Z,12.20
2022-12-23T02:29:29.471Z,15.10
2022-12-23T02:32:19.196Z,11.90
2022-12-23T02:35:35.458Z,11.00
2022-12-23T02:38:22.421Z,9.40
2022-12-23T02:40:59.032Z,6.90
2022-12-23T02:43:57.071Z,7.80
2022-12-23T02:46:37.013Z,8.50
2022-12-23T02:49:15.546Z,9.90
2022-12-23T02:51:50.519Z,11.00
2022-12-23T02:54:25.032Z,9.40
2022-12-23T02:56:54.181Z,11.70
2022-12-23T02:59:25.649Z,10.70
2022-12-23T03:01:54.264Z,8.60
2022-12-23T03:04:22.192Z,10.00
2022-12-23T03:06:52.192Z,8.90
2022-12-23T03:09:58.762Z,9.40
2022-12-23T03:13:08.039Z,10.80
2022-12-23T03:15:38.640Z,10.20
2022-12-23T03:18:29.747Z,12.70
2022-12-23T03:21:05.381Z,11.40
2022-12-23T03:23:37.871Z,12.10
2022-12-23T03:26:11.684Z,9.20
2022-12-23T03:28:59.171Z,11.50
2022-12-23T03:35:53.063Z,12.70
2022-12-23T03:38:22.030Z,11.80
2022-12-23T03:40:53.817Z,9.60
2022-12-23T03:43:35.321Z,13.20
2022-12-23T03:46:12.993Z,12.00
2022-12-23T03:48:45.657Z,10.50
2022-12-23T03:51:26.319Z,10.50
2022-12-23T03:54:01.256Z,11.00
2022-12-23T03:56:32.324Z,11.80
2022-12-23T03:59:03.658Z,9.60
2022-12-23T04:01:49.939Z,12.00
2022-12-23T04:04:32.969Z,10.70
2022-12-23T04:07:09.393Z,12.00
2022-12-23T04:09:37.806Z,10.30
2022-12-23T04:12:05.896Z,10.30
2022-12-23T04:14:34.500Z,12.30
2022-12-23T04:17:02.792Z,9.90
2022-12-23T04:19:30.524Z,12.40
2022-12-23T04:21:58.295Z,10.30
2022-12-23T04:24:26.040Z,11.80
2022-12-23T04:26:53.730Z,9.20
2022-12-23T04:29:21.566Z,11.40
2022-12-23T04:31:49.354Z,11.60
2022-12-23T04:34:17.170Z,10.50
2022-12-23T04:36:45.016Z,10.30
2022-12-23T04:39:12.753Z,12.90
2022-12-23T04:41:40.518Z,8.70
2022-12-23T04:44:08.996Z,11.40
2022-12-23T04:46:37.099Z,12.50
2022-12-23T04:49:05.345Z,12.30
2022-12-23T04:51:33.083Z,12.70
2022-12-23T04:54:00.835Z,11.40
2022-12-23T04:56:28.616Z,12.60
2022-12-23T04:58:56.380Z,10.30
2022-12-23T05:01:24.336Z,11.60
2022-12-23T05:03:52.212Z,12.50
2022-12-23T05:06:19.962Z,13.50
2022-12-23T05:08:47.687Z,12.90
2022-12-23T05:11:15.400Z,13.30
2022-12-23T05:13:43.362Z,16.80
2022-12-23T05:16:11.301Z,13.30
2022-12-23T05:18:39.085Z,14.10
2022-12-23T05:21:06.882Z,13.30
2022-12-23T05:23:34.838Z,13.80
2022-12-23T05:26:02.552Z,12.80
2022-12-23T05:28:30.566Z,15.60
2022-12-23T05:31:06.331Z,13.60
2022-12-23T05:33:34.875Z,15.60
2022-12-23T05:36:03.150Z,14.60
2022-12-23T05:38:30.996Z,12.30
2022-12-23T05:40:59.055Z,16.10
2022-12-23T05:43:26.796Z,15.00
2022-12-23T05:45:55.013Z,13.50
2022-12-23T05:48:22.934Z,14.60
2022-12-23T05:50:51.691Z,15.70
2022-12-23T05:53:20.567Z,16.70
2022-12-23T05:55:48.516Z,16.40
2022-12-23T05:58:16.959Z,14.30
2022-12-23T06:00:44.758Z,16.40
2022-12-23T06:03:12.844Z,15.40
2022-12-23T06:05:43.409Z,14.40
2022-12-23T06:08:11.296Z,15.20
2022-12-23T06:10:39.046Z,14.10
2022-12-23T06:13:06.805Z,15.90
2022-12-23T06:15:34.658Z,16.90
2022-12-23T06:18:02.449Z,19.60
2022-12-23T06:20:30.262Z,17.00
2022-12-23T06:22:58.058Z,16.40
2022-12-23T06:25:25.793Z,17.00
2022-12-23T06:27:53.543Z,16.60
2022-12-23T06:30:21.236Z,15.70
2022-12-23T06:32:48.976Z,13.60
2022-12-23T06:35:16.756Z,14.80
2022-12-23T06:37:44.798Z,13.90
2022-12-23T06:40:13.064Z,13.60
2022-12-23T06:42:40.857Z,16.30
2022-12-23T06:45:09.703Z,16.90
2022-12-23T06:47:37.592Z,14.50
2022-12-23T06:50:06.281Z,14.90
2022-12-23T06:52:34.017Z,15.70
2022-12-23T06:55:01.802Z,15.20
2022-12-23T06:57:29.505Z,12.90
2022-12-23T06:59:57.317Z,14.70
2022-12-23T07:02:25.169Z,15.40
2022-12-23T07:04:53.062Z,14.30
2022-12-23T07:07:20.868Z,15.90
2022-12-23T07:09:48.556Z,15.50
2022-12-23T07:12:16.617Z,15.90
2022-12-23T07:14:44.350Z,15.00
2022-12-23T07:17:12.173Z,15.60
2022-12-23T07:19:41.714Z,15.60
2022-12-23T07:22:10.361Z,13.50
2022-12-23T07:24:38.386Z,14.90
2022-12-23T07:27:06.121Z,11.30
2022-12-23T07:29:33.903Z,16.10
2022-12-23T07:32:02.550Z,12.90
2022-12-23T07:34:30.556Z,14.30
2022-12-23T07:36:58.328Z,11.00
2022-12-23T07:39:26.138Z,14.40
2022-12-23T07:42:09.323Z,10.50
2022-12-23T07:44:41.643Z,7.90
2022-12-23T07:47:10.037Z,10.70
2022-12-23T07:49:37.781Z,8.00
2022-12-23T07:52:05.565Z,9.00
2022-12-23T07:54:33.407Z,11.80
2022-12-23T07:57:01.309Z,9.10
2022-12-23T07:59:29.228Z,8.70
2022-12-23T08:01:57.109Z,9.50
2022-12-23T08:04:25.069Z,5.00
2022-12-23T08:06:53.028Z,4.80
2022-12-23T08:09:20.794Z,5.20
2022-12-23T08:11:48.553Z,6.00
2022-12-23T08:14:16.293Z,4.40
2022-12-23T08:16:44.592Z,6.70
2022-12-23T08:19:12.389Z,6.30
2022-12-23T08:21:40.077Z,6.00
2022-12-23T08:24:08.010Z,3.40
2022-12-23T08:26:35.740Z,4.70
2022-12-23T08:29:03.704Z,4.30
2022-12-23T08:31:34.406Z,4.60
2022-12-23T08:34:02.240Z,3.90
2022-12-23T08:36:32.368Z,5.40
2022-12-23T08:39:02.908Z,4.90
2022-12-23T08:41:33.505Z,4.60
2022-12-23T08:44:01.293Z,5.30
2022-12-23T08:46:29.379Z,5.80
2022-12-23T08:48:57.556Z,5.30
2022-12-23T08:51:26.223Z,4.80
2022-12-23T08:54:00.891Z,5.30
2022-12-23T08:56:33.053Z,5.00
2022-12-23T08:59:01.347Z,5.40
2022-12-23T09:01:31.577Z,5.70
2022-12-23T09:04:03.619Z,5.70
2022-12-23T09:06:49.651Z,5.60
2022-12-23T09:09:17.538Z,5.40
2022-12-23T09:11:45.292Z,5.30
2022-12-23T09:14:14.139Z,5.40
2022-12-23T09:16:44.439Z,4.80
2022-12-23T09:19:12.226Z,4.30
2022-12-23T09:21:39.961Z,6.40
2022-12-23T09:24:07.908Z,10.20
2022-12-23T09:26:35.694Z,6.20
2022-12-23T09:29:03.532Z,6.10
2022-12-23T09:31:36.536Z,6.40
2022-12-23T09:34:06.083Z,8.50
2022-12-23T09:36:34.095Z,7.30
2022-12-23T09:39:02.116Z,5.10
2022-12-23T09:41:52.428Z,6.50
2022-12-23T09:44:29.378Z,7.00
2022-12-23T09:47:02.642Z,6.30
2022-12-23T09:49:30.996Z,6.20
2022-12-23T09:52:02.267Z,6.50
2022-12-23T09:54:36.377Z,4.80
2022-12-23T09:57:16.732Z,5.20
2022-12-23T09:59:56.677Z,7.20
2022-12-23T10:02:32.299Z,5.60
2022-12-23T10:05:13.271Z,5.80
2022-12-23T10:07:47.771Z,5.20
2022-12-23T10:10:29.164Z,7.80
2022-12-23T10:12:58.674Z,3.60
2022-12-23T10:15:35.247Z,5.70
2022-12-23T10:18:10.638Z,4.70
2022-12-23T10:20:46.378Z,5.90
2022-12-23T10:23:18.272Z,5.70
2022-12-23T10:25:52.681Z,4.80
2022-12-23T10:28:20.509Z,8.00
2022-12-23T10:34:22.740Z,6.20
2022-12-23T10:36:59.811Z,7.20
2022-12-23T10:39:44.290Z,5.60
2022-12-23T10:42:11.967Z,5.60
2022-12-23T10:44:54.146Z,4.20
2022-12-23T10:47:49.148Z,4.20
2022-12-23T10:50:40.153Z,6.20
2022-12-23T10:53:11.264Z,7.30
2022-12-23T10:55:39.318Z,4.70
2022-12-23T10:58:13.663Z,6.00
2022-12-23T11:00:45.717Z,4.40
2022-12-23T11:03:19.557Z,5.80
2022-12-23T11:05:50.453Z,6.30
2022-12-23T11:08:19.935Z,5.70
2022-12-23T11:10:48.319Z,5.70
2022-12-23T11:13:37.060Z,6.00
2022-12-23T11:20:44.521Z,7.10
2022-12-23T11:23:30.761Z,5.60
2022-12-23T11:26:07.119Z,4.50
2022-12-23T11:28:48.712Z,4.80
2022-12-23T11:31:26.017Z,3.60
2022-12-23T11:34:05.688Z,6.50
2022-12-23T11:36:34.285Z,9.50
2022-12-23T11:39:15.637Z,4.80
2022-12-23T11:41:48.423Z,3.60
2022-12-23T11:44:44.277Z,4.10
2022-12-23T11:47:35.094Z,2.50
2022-12-23T11:50:27.784Z,3.10
2022-12-23T11:53:01.759Z,3.80
2022-12-23T11:55:32.890Z,3.30
2022-12-23T11:58:01.717Z,3.50
2022-12-23T12:00:40.362Z,2.80
2022-12-23T12:03:16.594Z,4.10
2022-12-23T12:05:54.417Z,5.30
2022-12-23T12:08:25.538Z,3.90
2022-12-23T12:10:53.944Z,3.90
2022-12-23T12:13:29.982Z,3.10
2022-12-23T12:16:23.910Z,4.50
2022-12-23T12:18:55.815Z,3.90
2022-12-23T12:24:18.228Z,2.70
2022-12-23T12:27:01.492Z,4.40
2022-12-23T12:29:31.475Z,3.40
2022-12-23T12:32:00.375Z,4.40
2022-12-23T12:34:49.583Z,6.50
2022-12-23T12:37:51.570Z,2.80
2022-12-23T12:40:32.853Z,5.10
2022-12-23T12:43:25.002Z,3.40
2022-12-23T12:45:59.786Z,3.00
2022-12-23T12:48:49.621Z,3.30
2022-12-23T12:51:50.399Z,4.80
2022-12-23T12:54:25.967Z,3.80
2022-12-23T12:56:56.193Z,4.70
2022-12-23T12:59:38.144Z,4.30
2022-12-23T13:02:21.879Z,4.50
2022-12-23T13:05:09.404Z,4.40
2022-12-23T13:07:50.945Z,4.00
2022-12-23T13:10:46.857Z,3.40
2022-12-23T13:13:49.927Z,4.20
2022-12-23T13:17:05.182Z,5.40
2022-12-23T13:20:10.723Z,6.60
2022-12-23T13:22:39.328Z,7.50
2022-12-23T13:25:17.896Z,6.30
2022-12-23T13:28:26.806Z,4.30
2022-12-23T13:31:10.140Z,3.80
2022-12-23T13:33:46.769Z,3.20
2022-12-23T13:36:31.281Z,4.90
2022-12-23T13:39:12.751Z,4.20
2022-12-23T13:41:44.088Z,6.00
2022-12-23T13:44:13.639Z,4.20
2022-12-23T13:47:15.891Z,6.90
2022-12-23T13:49:56.266Z,6.20
2022-12-23T13:52:56.497Z,5.50
2022-12-23T13:55:42.866Z,4.70
2022-12-23T13:58:16.682Z,4.50
2022-12-23T14:00:44.880Z,4.40
2022-12-23T14:03:23.057Z,4.80
2022-12-23T14:05:52.666Z,8.20
2022-12-23T14:08:20.480Z,8.30
2022-12-23T14:10:54.995Z,8.30
2022-12-23T14:13:24.951Z,7.40
2022-12-23T14:16:01.962Z,4.00
2022-12-23T14:18:36.557Z,4.00
2022-12-23T14:21:04.624Z,5.40
2022-12-23T14:24:08.978Z,5.30
2022-12-23T14:26:44.421Z,5.10
2022-12-23T14:29:24.829Z,6.70
2022-12-23T14:31:57.197Z,6.40
2022-12-23T14:34:32.933Z,7.00
2022-12-23T14:37:25.173Z,7.10
2022-12-23T14:39:53.633Z,5.80
2022-12-23T14:42:40.334Z,7.60
2022-12-23T14:45:33.263Z,5.30
2022-12-23T14:48:02.311Z,4.80
2022-12-23T14:50:33.361Z,5.90
2022-12-23T14:53:20.596Z,5.10
2022-12-23T14:55:50.239Z,9.10
2022-12-23T14:58:17.942Z,7.80
2022-12-23T15:01:09.929Z,7.10
2022-12-23T15:03:44.863Z,11.50
2022-12-23T15:06:35.758Z,9.20
2022-12-23T15:09:05.445Z,8.00
2022-12-23T15:11:35.279Z,7.20
2022-12-23T15:14:09.451Z,7.70
2022-12-23T15:16:39.785Z,6.30
2022-12-23T15:19:27.932Z,7.50
2022-12-23T15:22:19.900Z,4.90
2022-12-23T15:24:51.665Z,6.20
2022-12-23T15:27:29.573Z,8.70
2022-12-23T15:29:58.389Z,9.00
2022-12-23T15:32:26.846Z,9.00
2022-12-23T15:35:06.503Z,13.60
2022-12-23T15:37:34.911Z,7.80
2022-12-23T15:40:12.077Z,11.00
2022-12-23T15:42:48.812Z,8.70
2022-12-23T15:45:40.716Z,8.20
2022-12-23T15:48:27.623Z,7.70
2022-12-23T15:51:08.240Z,9.50
2022-12-23T15:53:38.361Z,10.20
2022-12-23T15:56:17.613Z,8.80
2022-12-23T15:58:45.772Z,8.20
2022-12-23T16:01:17.881Z,8.30
2022-12-23T16:03:52.868Z,9.20
2022-12-23T16:06:29.829Z,8.20
2022-12-23T16:09:04.709Z,7.60
2022-12-23T16:11:47.971Z,8.20
2022-12-23T16:14:31.161Z,7.80
2022-12-23T16:17:01.228Z,10.20
2022-12-23T16:19:52.803Z,8.50
2022-12-23T16:22:20.597Z,9.20
2022-12-23T16:25:08.053Z,8.50
2022-12-23T16:27:50.636Z,9.20
2022-12-23T16:30:26.611Z,11.20
2022-12-23T16:32:56.636Z,7.90
2022-12-23T16:35:32.296Z,8.40
2022-12-23T16:38:16.752Z,11.40
2022-12-23T16:40:46.694Z,11.20
2022-12-23T16:43:15.035Z,12.60
2022-12-23T16:45:43.850Z,13.10
2022-12-23T16:48:25.393Z,13.70
2022-12-23T16:50:53.829Z,15.60
2022-12-23T16:53:21.587Z,14.10
2022-12-23T16:55:56.636Z,15.00
2022-12-23T16:58:28.671Z,16.20
2022-12-23T17:00:56.536Z,14.80
2022-12-23T17:03:24.372Z,14.40
2022-12-23T17:05:52.062Z,14.30
2022-12-23T17:08:20.678Z,14.10
2022-12-23T17:10:48.498Z,15.30
2022-12-23T17:13:18.251Z,12.50
2022-12-23T17:15:46.010Z,11.70
2022-12-23T17:18:16.578Z,11.50
2022-12-23T17:20:45.638Z,11.00
2022-12-23T17:23:32.554Z,11.00
2022-12-23T17:26:00.690Z,11.70
2022-12-23T17:28:31.927Z,10.10
2022-12-23T17:31:00.012Z,11.20
2022-12-23T17:33:30.290Z,12.30
2022-12-23T17:35:58.486Z,10.40
2022-12-23T17:38:29.028Z,12.20
2022-12-23T17:40:58.584Z,12.00
2022-12-23T17:43:26.753Z,12.90
2022-12-23T17:45:54.637Z,11.60
2022-12-23T17:48:26.656Z,14.80
2022-12-23T17:50:59.087Z,13.00
2022-12-23T17:53:26.953Z,16.60
2022-12-23T17:55:56.903Z,13.50
2022-12-23T17:58:27.836Z,14.20
2022-12-23T18:00:56.301Z,13.80
2022-12-23T18:03:25.054Z,15.40
2022-12-23T18:05:59.365Z,15.10
2022-12-23T18:08:30.027Z,17.60
2022-12-23T18:10:58.502Z,14.80
2022-12-23T18:13:26.452Z,15.90
2022-12-23T18:15:54.187Z,16.60
2022-12-23T18:18:32.151Z,15.50
2022-12-23T18:21:06.615Z,17.20
2022-12-23T18:23:37.364Z,18.20
2022-12-23T18:26:07.097Z,17.30
2022-12-23T18:28:35.531Z,15.40
2022-12-23T18:31:03.462Z,14.50
2022-12-23T18:33:31.721Z,17.10
2022-12-23T18:35:59.500Z,17.20
2022-12-23T18:38:27.299Z,19.70
2022-12-23T18:40:56.606Z,15.80
2022-12-23T18:43:25.378Z,16.10
2022-12-23T18:45:54.102Z,16.70
2022-12-23T18:48:22.177Z,17.00
2022-12-23T18:50:50.000Z,14.50
2022-12-23T18:53:25.308Z,14.50
2022-12-23T18:55:54.594Z,14.40
2022-12-23T18:58:23.310Z,17.40
2022-12-23T19:00:52.860Z,17.60
2022-12-23T19:03:24.814Z,16.70
2022-12-23T19:08:26.740Z,17.50
2022-12-23T19:10:55.850Z,16.90
2022-12-23T19:13:23.852Z,15.50
2022-12-23T19:15:52.427Z,17.30
2022-12-23T19:18:21.806Z,15.60
2022-12-23T19:20:49.878Z,14.10
2022-12-23T19:23:18.241Z,14.20
2022-12-23T19:25:54.388Z,16.10
2022-12-23T19:28:22.809Z,17.50
2022-12-23T19:30:50.897Z,16.50
2022-12-23T19:33:18.924Z,15.70
2022-12-23T19:35:46.764Z,18.60
2022-12-23T19:38:14.550Z,17.30
2022-12-23T19:40:42.549Z,19.90
2022-12-23T19:43:10.281Z,15.10
2022-12-23T19:45:38.045Z,14.60
2022-12-23T19:48:05.946Z,17.20
2022-12-23T19:50:33.858Z,15.90
2022-12-23T19:53:01.754Z,18.10
2022-12-23T19:55:29.622Z,14.90
2022-12-23T19:57:57.607Z,16.40
2022-12-23T20:00:25.735Z,14.80
2022-12-23T20:02:58.725Z,17.10
2022-12-23T20:05:27.146Z,17.90
2022-12-23T20:07:55.001Z,15.50
2022-12-23T20:10:22.754Z,15.70
2022-12-23T20:12:50.648Z,14.90
2022-12-23T20:15:18.578Z,16.10
2022-12-23T20:17:46.325Z,15.10
2022-12-23T20:20:14.200Z,16.30
2022-12-23T20:22:42.011Z,15.80
2022-12-23T20:25:09.970Z,16.40
2022-12-23T20:27:38.912Z,22.80
2022-12-23T20:30:07.322Z,18.90
2022-12-23T20:32:35.127Z,18.00
2022-12-23T20:35:02.951Z,18.80
2022-12-23T20:37:30.922Z,18.30
2022-12-23T20:39:58.692Z,17.60
2022-12-23T20:42:28.032Z,17.80
2022-12-23T20:44:55.785Z,20.40
2022-12-23T20:47:23.512Z,20.90
2022-12-23T20:49:51.456Z,19.50
2022-12-23T20:52:19.279Z,33.80
2022-12-23T20:54:47.014Z,38.30
2022-12-23T20:57:14.897Z,32.90
2022-12-23T20:59:42.863Z,43.90
2022-12-23T21:02:13.224Z,36.70
2022-12-23T21:04:41.383Z,41.60
2022-12-23T21:07:09.393Z,27.70
2022-12-23T21:09:37.217Z,27.60
2022-12-23T21:12:05.829Z,25.50
2022-12-23T21:14:33.723Z,23.30
2022-12-23T21:17:01.478Z,23.60
2022-12-23T21:19:30.413Z,25.10
2022-12-23T21:21:58.228Z,27.10
2022-12-23T21:24:26.117Z,31.30
2022-12-23T21:26:56.901Z,27.80
2022-12-23T21:29:25.723Z,35.00
2022-12-23T21:31:55.117Z,36.10
2022-12-23T21:34:23.353Z,38.30
2022-12-23T21:36:51.174Z,35.40
2022-12-23T21:39:19.939Z,38.40
2022-12-23T21:41:50.923Z,37.30
2022-12-23T21:44:18.739Z,35.80
2022-12-23T21:46:46.494Z,35.10
2022-12-23T21:49:14.495Z,33.60
2022-12-23T21:51:42.396Z,34.30
2022-12-23T21:54:11.379Z,34.00
2022-12-23T21:56:39.840Z,32.70
2022-12-23T21:59:12.834Z,32.40
2022-12-23T22:01:41.927Z,37.40
2022-12-23T22:04:10.200Z,34.50
2022-12-23T22:06:41.069Z,35.20
2022-12-23T22:09:11.243Z,27.80
2022-12-23T22:11:39.255Z,31.10
2022-12-23T22:14:08.435Z,30.00
2022-12-23T22:16:36.555Z,35.20
2022-12-23T22:19:06.370Z,32.70
2022-12-23T22:21:34.858Z,42.10
2022-12-23T22:24:03.346Z,33.80
2022-12-23T22:26:32.299Z,37.70
2022-12-23T22:29:02.376Z,34.30
2022-12-23T22:31:43.005Z,36.90
2022-12-23T22:34:19.435Z,31.70
2022-12-23T22:36:47.482Z,29.60
2022-12-23T22:39:20.634Z,30.70
2022-12-23T22:41:50.624Z,34.20
2022-12-23T22:44:19.423Z,25.40
2022-12-23T22:46:47.280Z,27.70
2022-12-23T22:49:15.748Z,26.60
2022-12-23T22:51:43.841Z,31.70
2022-12-23T22:54:11.922Z,32.30
2022-12-23T22:56:39.690Z,34.10
2022-12-23T22:59:07.531Z,30.90
2022-12-23T23:01:36.345Z,34.40
2022-12-23T23:04:04.980Z,31.40
2022-12-23T23:06:34.988Z,30.50
2022-12-23T23:09:03.082Z,29.20
2022-12-23T23:11:30.988Z,25.70
2022-12-23T23:13:58.765Z,26.40
2022-12-23T23:16:27.027Z,22.90
2022-12-23T23:18:54.846Z,26.30
2022-12-23T23:21:22.642Z,27.60
2022-12-23T23:23:50.721Z,26.50
2022-12-23T23:26:19.513Z,29.60
2022-12-23T23:28:48.060Z,27.20
2022-12-23T23:34:03.919Z,29.60
2022-12-23T23:36:31.837Z,24.90
2022-12-23T23:38:59.580Z,22.80
2022-12-23T23:41:27.458Z,22.80
2022-12-23T23:43:55.348Z,24.70
2022-12-23T23:46:23.317Z,23.70
2022-12-23T23:48:51.143Z,22.60
2022-12-23T23:51:19.251Z,24.50
2022-12-23T23:53:47.318Z,23.00
2022-12-23T23:56:21.935Z,25.40
2022-12-23T23:58:53.002Z,23.70
